createdAt,value
2018-09-05T00:00:49.505Z,26.10
2018-09-05T00:03:19.028Z,23.80
2018-09-05T00:05:47.717Z,24.00
2018-09-05T00:08:16.272Z,24.80
2018-09-05T00:10:44.905Z,23.70
2018-09-05T00:13:13.524Z,25.40
2018-09-05T00:15:42.221Z,24.83
2018-09-05T00:18:10.963Z,23.87
2018-09-05T00:20:40.142Z,22.70
2018-09-05T00:23:08.847Z,24.33
2018-09-05T00:25:37.608Z,26.90
2018-09-05T00:28:06.261Z,24.70
2018-09-05T00:30:35.000Z,26.50
2018-09-05T00:33:04.173Z,25.37
2018-09-05T00:35:32.831Z,22.77
2018-09-05T00:38:01.566Z,23.20
2018-09-05T00:40:30.467Z,22.67
2018-09-05T00:42:59.174Z,23.57
2018-09-05T00:45:27.847Z,23.33
2018-09-05T00:47:56.572Z,23.80
2018-09-05T00:50:25.212Z,23.20
2018-09-05T00:52:53.920Z,23.37
2018-09-05T00:55:22.692Z,24.27
2018-09-05T00:57:53.346Z,24.10
2018-09-05T01:00:22.038Z,24.20
2018-09-05T01:02:50.632Z,23.90
2018-09-05T01:05:19.259Z,25.37
2018-09-05T01:07:47.872Z,23.30
2018-09-05T01:10:16.581Z,23.27
2018-09-05T01:12:45.239Z,20.53
2018-09-05T01:15:13.898Z,22.90
2018-09-05T01:17:42.503Z,21.63
2018-09-05T01:20:11.223Z,22.33
2018-09-05T01:22:39.961Z,21.60
2018-09-05T01:25:08.555Z,23.03
2018-09-05T01:27:37.305Z,21.20
2018-09-05T01:30:06.344Z,22.90
2018-09-05T01:32:35.004Z,24.40
2018-09-05T01:35:03.707Z,22.23
2018-09-05T01:37:32.534Z,23.30
2018-09-05T01:40:01.251Z,22.37
2018-09-05T01:42:29.867Z,22.87
2018-09-05T01:44:58.512Z,21.57
2018-09-05T01:47:27.075Z,22.27
2018-09-05T01:49:55.832Z,22.40
2018-09-05T01:52:24.414Z,22.60
2018-09-05T01:54:53.069Z,23.40
2018-09-05T01:57:21.755Z,22.03
2018-09-05T01:59:50.410Z,21.83
2018-09-05T02:02:19.765Z,22.20
2018-09-05T02:04:48.397Z,23.27
2018-09-05T02:07:16.972Z,21.93
2018-09-05T02:09:45.586Z,23.30
2018-09-05T02:12:14.828Z,24.60
2018-09-05T02:14:43.505Z,25.30
2018-09-05T02:17:12.311Z,22.60
2018-09-05T02:19:41.062Z,22.67
2018-09-05T02:22:09.749Z,23.83
2018-09-05T02:24:38.435Z,23.10
2018-09-05T02:27:07.259Z,22.60
2018-09-05T02:29:35.906Z,23.53
2018-09-05T02:32:04.648Z,25.77
2018-09-05T02:34:33.271Z,23.30
2018-09-05T02:37:02.018Z,24.33
2018-09-05T02:39:30.593Z,24.00
2018-09-05T02:41:59.284Z,24.47
2018-09-05T02:44:28.013Z,23.50
2018-09-05T02:46:59.489Z,24.03
2018-09-05T02:49:28.138Z,25.27
2018-09-05T02:51:56.751Z,24.13
2018-09-05T02:54:25.580Z,23.77
2018-09-05T02:56:54.232Z,23.30
2018-09-05T02:59:22.947Z,23.17
2018-09-05T03:01:51.607Z,23.27
2018-09-05T03:04:20.395Z,23.10
2018-09-05T03:06:49.003Z,21.77
2018-09-05T03:09:18.070Z,22.60
2018-09-05T03:11:47.447Z,23.70
2018-09-05T03:14:16.768Z,24.37
2018-09-05T03:16:45.461Z,23.83
2018-09-05T03:19:14.102Z,23.30
2018-09-05T03:21:42.936Z,23.10
2018-09-05T03:24:11.629Z,20.77
2018-09-05T03:26:40.396Z,23.00
2018-09-05T03:29:09.043Z,24.17
2018-09-05T03:31:37.930Z,22.87
2018-09-05T03:34:06.733Z,25.37
2018-09-05T03:36:35.491Z,24.10
2018-09-05T03:39:05.466Z,24.33
2018-09-05T03:41:34.082Z,27.67
2018-09-05T03:44:02.695Z,25.17
2018-09-05T03:46:31.559Z,26.10
2018-09-05T03:49:00.157Z,26.17
2018-09-05T03:51:28.935Z,25.53
2018-09-05T03:53:57.621Z,26.63
2018-09-05T03:56:26.332Z,25.47
2018-09-05T03:58:55.064Z,27.80
2018-09-05T04:01:23.789Z,24.77
2018-09-05T04:03:52.430Z,25.90
2018-09-05T04:06:22.874Z,27.80
2018-09-05T04:08:52.909Z,26.47
2018-09-05T04:11:21.580Z,26.57
2018-09-05T04:13:50.924Z,27.83
2018-09-05T04:16:19.702Z,28.50
2018-09-05T04:18:49.451Z,26.27
2018-09-05T04:21:18.285Z,28.47
2018-09-05T04:23:48.787Z,27.63
2018-09-05T04:26:18.657Z,30.30
2018-09-05T04:28:47.609Z,29.90
2018-09-05T04:31:16.592Z,31.57
2018-09-05T04:33:45.250Z,30.40
2018-09-05T04:36:14.886Z,29.43
2018-09-05T04:38:44.067Z,31.00
2018-09-05T04:41:12.851Z,31.67
2018-09-05T04:43:41.479Z,31.77
2018-09-05T04:46:10.196Z,29.47
2018-09-05T04:48:38.836Z,26.83
2018-09-05T04:51:07.462Z,28.00
2018-09-05T04:53:36.179Z,27.23
2018-09-05T04:56:05.225Z,27.37
2018-09-05T04:58:34.129Z,28.43
2018-09-05T05:01:02.750Z,27.77
2018-09-05T05:03:31.449Z,27.37
2018-09-05T05:06:00.082Z,27.53
2018-09-05T05:08:28.720Z,30.10
2018-09-05T05:10:57.428Z,27.00
2018-09-05T05:13:26.131Z,26.90
2018-09-05T05:15:54.740Z,26.53
2018-09-05T05:18:23.480Z,26.63
2018-09-05T05:20:52.105Z,25.70
2018-09-05T05:23:20.746Z,25.67
2018-09-05T05:25:49.417Z,26.40
2018-09-05T05:28:18.072Z,25.23
2018-09-05T05:30:46.772Z,24.10
2018-09-05T05:33:15.505Z,25.77
2018-09-05T05:35:44.171Z,24.20
2018-09-05T05:38:12.875Z,26.10
2018-09-05T05:40:41.620Z,22.63
2018-09-05T05:43:10.417Z,22.37
2018-09-05T05:45:39.019Z,24.50
2018-09-05T05:48:07.677Z,22.90
2018-09-05T05:50:36.293Z,21.50
2018-09-05T05:53:05.269Z,20.43
2018-09-05T05:55:33.955Z,21.67
2018-09-05T05:58:02.630Z,22.23
2018-09-05T06:00:31.308Z,22.10
2018-09-05T06:03:00.018Z,21.70
2018-09-05T06:05:28.832Z,21.50
2018-09-05T06:07:57.652Z,19.70
2018-09-05T06:10:27.902Z,17.87
2018-09-05T06:12:58.687Z,20.23
2018-09-05T06:15:28.527Z,19.13
2018-09-05T06:17:57.627Z,18.97
2018-09-05T06:20:26.444Z,21.87
2018-09-05T06:22:55.240Z,21.07
2018-09-05T06:25:24.122Z,31.40
2018-09-05T06:27:52.789Z,19.57
2018-09-05T06:30:21.562Z,20.23
2018-09-05T06:32:50.495Z,19.20
2018-09-05T06:35:19.379Z,18.40
2018-09-05T06:37:48.142Z,17.93
2018-09-05T06:40:16.911Z,18.00
2018-09-05T06:42:45.875Z,17.10
2018-09-05T06:45:14.576Z,18.60
2018-09-05T06:47:43.393Z,16.13
2018-09-05T06:50:12.081Z,18.63
2018-09-05T06:52:40.899Z,18.40
2018-09-05T06:55:09.623Z,18.60
2018-09-05T06:57:38.361Z,18.50
2018-09-05T07:00:07.965Z,18.93
2018-09-05T07:02:36.673Z,16.60
2018-09-05T07:05:05.355Z,17.57
2018-09-05T07:07:34.313Z,17.23
2018-09-05T07:10:03.324Z,18.97
2018-09-05T07:12:31.935Z,18.00
2018-09-05T07:15:00.652Z,16.43
2018-09-05T07:17:29.328Z,16.33
2018-09-05T07:19:58.022Z,17.60
2018-09-05T07:22:26.715Z,16.57
2018-09-05T07:24:55.353Z,15.67
2018-09-05T07:27:24.028Z,15.70
2018-09-05T07:29:52.661Z,18.57
2018-09-05T07:32:21.366Z,38.13
2018-09-05T07:34:50.399Z,16.23
2018-09-05T07:37:19.100Z,15.83
2018-09-05T07:39:47.794Z,16.07
2018-09-05T07:42:16.469Z,15.73
2018-09-05T07:44:45.094Z,16.10
2018-09-05T07:47:13.833Z,16.50
2018-09-05T07:49:42.458Z,16.93
2018-09-05T07:52:11.210Z,15.20
2018-09-05T07:54:39.865Z,17.40
2018-09-05T07:57:08.591Z,15.53
2018-09-05T07:59:37.292Z,18.03
2018-09-05T08:02:06.095Z,14.70
2018-09-05T08:04:34.734Z,16.53
2018-09-05T08:07:03.520Z,16.10
2018-09-05T08:09:32.251Z,15.63
2018-09-05T08:12:00.852Z,17.27
2018-09-05T08:14:29.548Z,14.43
2018-09-05T08:16:58.439Z,14.60
2018-09-05T08:19:27.161Z,15.80
2018-09-05T08:21:55.919Z,15.97
2018-09-05T08:24:24.569Z,16.93
2018-09-05T08:26:53.380Z,15.60
2018-09-05T08:29:21.979Z,16.90
2018-09-05T08:31:50.693Z,16.17
2018-09-05T08:34:19.570Z,16.80
2018-09-05T08:36:48.614Z,15.10
2018-09-05T08:39:17.449Z,15.03
2018-09-05T08:41:46.543Z,16.23
2018-09-05T08:44:15.336Z,15.30
2018-09-05T08:46:44.437Z,13.87
2018-09-05T08:49:13.084Z,14.67
2018-09-05T08:51:41.803Z,14.30
2018-09-05T08:54:10.595Z,14.77
2018-09-05T08:56:39.205Z,16.43
2018-09-05T08:59:07.837Z,17.03
2018-09-05T09:01:37.135Z,15.13
2018-09-05T09:04:05.805Z,13.53
2018-09-05T09:06:34.464Z,16.20
2018-09-05T09:09:03.233Z,16.03
2018-09-05T09:11:32.128Z,15.57
2018-09-05T09:14:00.814Z,14.47
2018-09-05T09:16:29.519Z,16.40
2018-09-05T09:18:58.230Z,15.90
2018-09-05T09:21:26.899Z,16.07
2018-09-05T09:23:55.726Z,15.50
2018-09-05T09:26:24.376Z,16.57
2018-09-05T09:28:52.996Z,15.93
2018-09-05T09:31:21.669Z,14.10
2018-09-05T09:33:50.494Z,13.80
2018-09-05T09:36:19.070Z,13.17
2018-09-05T09:38:47.955Z,12.80
2018-09-05T09:41:16.560Z,13.90
2018-09-05T09:43:45.170Z,13.67
2018-09-05T09:46:13.842Z,12.57
2018-09-05T09:48:42.481Z,11.60
2018-09-05T09:51:11.131Z,10.70
2018-09-05T09:53:39.771Z,10.70
2018-09-05T09:56:08.398Z,10.90
2018-09-05T09:58:37.048Z,10.80
2018-09-05T10:01:11.239Z,11.23
2018-09-05T10:03:45.354Z,10.83
2018-09-05T10:06:22.541Z,10.50
2018-09-05T10:08:56.593Z,9.60
2018-09-05T10:12:28.211Z,9.27
2018-09-05T10:15:01.823Z,11.47
2018-09-05T10:17:37.670Z,10.13
2018-09-05T10:20:06.737Z,9.67
2018-09-05T10:22:35.345Z,8.90
2018-09-05T10:25:04.130Z,10.00
2018-09-05T10:27:32.776Z,9.03
2018-09-05T10:30:01.402Z,8.33
2018-09-05T10:32:30.064Z,9.80
2018-09-05T10:34:58.857Z,8.40
2018-09-05T10:37:27.717Z,9.30
2018-09-05T10:39:56.627Z,9.57
2018-09-05T10:42:25.225Z,8.90
2018-09-05T10:44:53.956Z,8.00
2018-09-05T10:47:22.607Z,8.03
2018-09-05T10:49:51.350Z,8.90
2018-09-05T10:52:19.922Z,8.40
2018-09-05T10:54:48.603Z,8.67
2018-09-05T10:57:17.315Z,8.60
2018-09-05T10:59:46.086Z,7.50
2018-09-05T11:02:15.048Z,8.43
2018-09-05T11:04:43.904Z,8.83
2018-09-05T11:07:12.810Z,8.27
2018-09-05T11:09:41.481Z,7.87
2018-09-05T11:12:10.187Z,8.13
2018-09-05T11:14:38.812Z,8.50
2018-09-05T11:17:07.498Z,7.70
2018-09-05T11:19:36.239Z,8.10
2018-09-05T11:22:05.025Z,7.50
2018-09-05T11:24:33.625Z,8.10
2018-09-05T11:27:02.296Z,7.93
2018-09-05T11:29:30.942Z,7.53
2018-09-05T11:32:00.586Z,6.83
2018-09-05T11:34:29.170Z,7.40
2018-09-05T11:36:58.577Z,6.83
2018-09-05T11:39:27.187Z,7.13
2018-09-05T11:41:57.457Z,7.57
2018-09-05T11:44:26.107Z,7.23
2018-09-05T11:46:54.733Z,6.33
2018-09-05T11:49:23.477Z,6.50
2018-09-05T11:51:52.317Z,6.30
2018-09-05T11:54:20.975Z,5.77
2018-09-05T11:56:49.659Z,6.33
2018-09-05T11:59:18.222Z,6.07
2018-09-05T12:01:46.900Z,5.30
2018-09-05T12:04:15.574Z,6.03
2018-09-05T12:06:44.302Z,5.77
2018-09-05T12:09:13.484Z,6.00
2018-09-05T12:11:42.394Z,6.07
2018-09-05T12:14:11.118Z,5.80
2018-09-05T12:16:39.786Z,6.00
2018-09-05T12:19:08.541Z,6.30
2018-09-05T12:21:37.410Z,6.10
2018-09-05T12:24:06.124Z,6.03
2018-09-05T12:26:35.375Z,6.30
2018-09-05T12:29:06.602Z,5.70
2018-09-05T12:31:35.238Z,5.97
2018-09-05T12:34:04.023Z,5.07
2018-09-05T12:36:32.590Z,6.23
2018-09-05T12:39:01.583Z,5.90
2018-09-05T12:41:30.247Z,5.00
2018-09-05T12:43:59.088Z,5.67
2018-09-05T12:46:27.666Z,5.60
2018-09-05T12:48:56.325Z,5.07
2018-09-05T12:51:24.934Z,5.00
2018-09-05T12:53:53.657Z,4.70
2018-09-05T12:56:22.230Z,6.60
2018-09-05T12:58:50.927Z,4.20
2018-09-05T13:01:19.622Z,4.37
2018-09-05T13:03:48.439Z,5.03
2018-09-05T13:06:17.055Z,4.70
2018-09-05T13:08:45.795Z,5.70
2018-09-05T13:11:14.837Z,5.70
2018-09-05T13:13:43.424Z,6.67
2018-09-05T13:16:12.123Z,4.47
2018-09-05T13:18:40.787Z,5.17
2018-09-05T13:21:09.458Z,5.70
2018-09-05T13:23:38.230Z,5.90
2018-09-05T13:26:07.074Z,4.50
2018-09-05T13:28:35.793Z,5.50
2018-09-05T13:31:04.964Z,5.73
2018-09-05T13:33:33.647Z,5.80
2018-09-05T13:36:02.563Z,5.10
2018-09-05T13:38:31.164Z,5.60
2018-09-05T13:40:59.815Z,5.80
2018-09-05T13:43:28.441Z,4.90
2018-09-05T13:45:57.108Z,5.43
2018-09-05T13:48:25.748Z,5.77
2018-09-05T13:50:54.491Z,5.00
2018-09-05T13:53:23.255Z,5.83
2018-09-05T13:55:51.973Z,5.10
2018-09-05T13:58:20.725Z,6.13
2018-09-05T14:00:49.387Z,5.00
2018-09-05T14:03:18.040Z,5.23
2018-09-05T14:05:46.665Z,5.00
2018-09-05T14:08:15.311Z,4.80
2018-09-05T14:10:43.921Z,5.40
2018-09-05T14:13:12.599Z,5.10
2018-09-05T14:15:41.259Z,4.73
2018-09-05T14:18:10.299Z,6.00
2018-09-05T14:20:39.167Z,4.80
2018-09-05T14:23:07.883Z,5.20
2018-09-05T14:25:36.594Z,4.40
2018-09-05T14:28:05.408Z,4.43
2018-09-05T14:30:33.966Z,4.90
2018-09-05T14:33:02.604Z,3.80
2018-09-05T14:35:31.223Z,4.73
2018-09-05T14:38:00.275Z,3.33
2018-09-05T14:40:28.914Z,4.40
2018-09-05T14:42:57.485Z,3.67
2018-09-05T14:45:26.081Z,3.80
2018-09-05T14:47:54.727Z,5.03
2018-09-05T14:50:23.364Z,4.53
2018-09-05T14:52:51.960Z,4.60
2018-09-05T14:55:20.569Z,4.77
2018-09-05T14:57:49.742Z,5.33
2018-09-05T15:00:18.414Z,4.10
2018-09-05T15:02:47.189Z,4.20
2018-09-05T15:05:15.846Z,4.83
2018-09-05T15:07:48.514Z,4.37
2018-09-05T15:10:17.580Z,4.13
2018-09-05T15:12:46.746Z,3.73
2018-09-05T15:15:16.437Z,4.90
2018-09-05T15:17:46.267Z,4.70
2018-09-05T15:20:15.224Z,4.00
2018-09-05T15:22:51.040Z,4.20
2018-09-05T15:25:19.672Z,4.67
2018-09-05T15:27:48.711Z,5.13
2018-09-05T15:30:18.117Z,4.33
2018-09-05T15:32:49.900Z,5.00
2018-09-05T15:35:32.000Z,4.27
2018-09-05T15:38:00.912Z,5.07
2018-09-05T15:40:29.604Z,4.60
2018-09-05T15:42:58.408Z,4.93
2018-09-05T15:45:28.082Z,5.27
2018-09-05T15:47:57.137Z,4.87
2018-09-05T15:50:26.625Z,4.70
2018-09-05T15:52:55.255Z,6.97
2018-09-05T15:55:24.058Z,4.97
2018-09-05T15:57:52.794Z,5.10
2018-09-05T16:00:21.467Z,5.53
2018-09-05T16:02:50.281Z,4.60
2018-09-05T16:05:19.453Z,5.27
2018-09-05T16:07:48.104Z,4.87
2018-09-05T16:10:16.778Z,5.13
2018-09-05T16:12:45.672Z,5.40
2018-09-05T16:15:14.516Z,3.87
2018-09-05T16:17:43.554Z,5.03
2018-09-05T16:20:12.366Z,5.27
2018-09-05T16:22:41.023Z,5.20
2018-09-05T16:25:09.873Z,4.50
2018-09-05T16:27:38.715Z,6.73
2018-09-05T16:30:07.611Z,4.27
2018-09-05T16:32:36.490Z,4.83
2018-09-05T16:35:05.263Z,4.40
2018-09-05T16:37:34.074Z,4.50
2018-09-05T16:40:02.687Z,5.50
2018-09-05T16:42:31.549Z,5.20
2018-09-05T16:45:00.854Z,4.80
2018-09-05T16:47:29.822Z,6.00
2018-09-05T16:49:58.478Z,5.57
2018-09-05T16:52:32.267Z,5.10
2018-09-05T16:55:00.993Z,5.00
2018-09-05T16:57:30.120Z,5.57
2018-09-05T16:59:58.906Z,5.20
2018-09-05T17:02:27.666Z,4.70
2018-09-05T17:04:56.992Z,5.07
2018-09-05T17:07:26.236Z,5.30
2018-09-05T17:09:55.008Z,5.73
2018-09-05T17:12:24.249Z,4.30
2018-09-05T17:14:52.869Z,4.73
2018-09-05T17:17:21.643Z,5.07
2018-09-05T17:19:50.443Z,5.33
2018-09-05T17:22:20.390Z,5.20
2018-09-05T17:24:49.180Z,5.03
2018-09-05T17:27:17.957Z,4.50
2018-09-05T17:29:46.754Z,5.37
2018-09-05T17:32:15.629Z,5.50
2018-09-05T17:34:44.420Z,4.80
2018-09-05T17:37:13.217Z,5.17
2018-09-05T17:39:41.938Z,4.43
2018-09-05T17:42:10.687Z,5.10
2018-09-05T17:44:39.386Z,5.23
2018-09-05T17:47:08.104Z,5.87
2018-09-05T17:49:36.775Z,5.00
2018-09-05T17:52:05.406Z,5.77
2018-09-05T17:54:34.149Z,5.20
2018-09-05T17:57:02.963Z,5.60
2018-09-05T17:59:31.622Z,5.23
2018-09-05T18:02:00.642Z,4.77
2018-09-05T18:04:29.465Z,6.40
2018-09-05T18:06:58.062Z,5.23
2018-09-05T18:09:27.504Z,4.67
2018-09-05T18:11:56.907Z,5.20
2018-09-05T18:14:25.690Z,5.13
2018-09-05T18:16:54.414Z,5.97
2018-09-05T18:19:23.079Z,4.57
2018-09-05T18:21:51.772Z,4.57
2018-09-05T18:24:20.561Z,5.17
2018-09-05T18:26:49.264Z,5.90
2018-09-05T18:29:17.999Z,5.37
2018-09-05T18:31:47.265Z,5.33
2018-09-05T18:34:15.997Z,5.30
2018-09-05T18:36:44.593Z,4.77
2018-09-05T18:39:13.258Z,4.90
2018-09-05T18:41:42.519Z,5.87
2018-09-05T18:44:11.176Z,5.07
2018-09-05T18:46:39.951Z,5.87
2018-09-05T18:49:15.342Z,5.43
2018-09-05T18:51:43.989Z,5.10
2018-09-05T18:54:12.774Z,5.13
2018-09-05T18:56:41.389Z,5.40
2018-09-05T18:59:10.717Z,4.60
2018-09-05T19:01:39.387Z,4.90
2018-09-05T19:04:08.059Z,5.40
2018-09-05T19:06:36.847Z,4.70
2018-09-05T19:09:08.578Z,5.23
2018-09-05T19:11:37.310Z,5.03
2018-09-05T19:14:06.120Z,5.27
2018-09-05T19:16:36.095Z,6.43
2018-09-05T19:19:04.826Z,6.50
2018-09-05T19:21:33.744Z,4.80
2018-09-05T19:24:02.395Z,5.80
2018-09-05T19:26:31.615Z,4.53
2018-09-05T19:29:00.331Z,5.50
2018-09-05T19:31:29.138Z,4.93
2018-09-05T19:33:58.151Z,5.50
2018-09-05T19:36:26.963Z,5.63
2018-09-05T19:38:55.698Z,5.30
2018-09-05T19:41:25.039Z,5.17
2018-09-05T19:43:53.823Z,5.03
2018-09-05T19:46:22.593Z,5.70
2018-09-05T19:48:51.458Z,5.30
2018-09-05T19:51:20.087Z,6.07
2018-09-05T19:53:48.754Z,5.33
2018-09-05T19:56:17.989Z,5.33
2018-09-05T19:58:46.773Z,5.30
2018-09-05T20:01:15.479Z,5.30
2018-09-05T20:03:44.088Z,6.03
2018-09-05T20:06:12.756Z,4.50
2018-09-05T20:08:41.513Z,5.57
2018-09-05T20:11:10.169Z,6.20
2018-09-05T20:13:39.095Z,5.60
2018-09-05T20:16:07.991Z,5.13
2018-09-05T20:18:36.686Z,5.70
2018-09-05T20:21:05.336Z,5.83
2018-09-05T20:23:34.020Z,5.20
2018-09-05T20:26:02.743Z,5.50
2018-09-05T20:28:31.366Z,5.10
2018-09-05T20:31:00.011Z,5.20
2018-09-05T20:33:28.589Z,5.50
2018-09-05T20:35:57.193Z,5.40
2018-09-05T20:38:25.788Z,5.97
2018-09-05T20:40:54.459Z,5.53
2018-09-05T20:43:23.110Z,4.80
2018-09-05T20:45:51.802Z,5.17
2018-09-05T20:48:20.405Z,5.30
2018-09-05T20:50:48.986Z,5.17
2018-09-05T20:53:17.748Z,5.57
2018-09-05T20:55:46.510Z,5.67
2018-09-05T20:58:15.325Z,4.47
2018-09-05T21:00:44.170Z,6.13
2018-09-05T21:03:12.787Z,4.87
2018-09-05T21:05:41.647Z,6.20
2018-09-05T21:08:11.127Z,6.10
2018-09-05T21:10:39.738Z,5.37
2018-09-05T21:13:08.369Z,5.63
2018-09-05T21:15:37.041Z,5.43
2018-09-05T21:18:05.976Z,6.23
2018-09-05T21:20:34.461Z,5.50
2018-09-05T21:23:03.090Z,5.83
2018-09-05T21:25:31.723Z,5.90
2018-09-05T21:28:00.267Z,5.57
2018-09-05T21:30:28.871Z,6.93
2018-09-05T21:32:57.447Z,6.13
2018-09-05T21:35:26.023Z,7.10
2018-09-05T21:37:54.601Z,5.53
2018-09-05T21:40:23.190Z,5.63
2018-09-05T21:42:51.836Z,6.00
2018-09-05T21:45:20.559Z,5.80
2018-09-05T21:47:49.265Z,5.90
2018-09-05T21:50:17.929Z,5.70
2018-09-05T21:52:46.619Z,5.77
2018-09-05T21:55:15.540Z,5.53
2018-09-05T21:57:44.154Z,5.33
2018-09-05T22:00:12.780Z,6.50
2018-09-05T22:02:41.411Z,6.40
2018-09-05T22:05:10.001Z,6.07
2018-09-05T22:07:38.607Z,5.50
2018-09-05T22:10:07.243Z,6.00
2018-09-05T22:12:36.269Z,6.03
2018-09-05T22:15:05.675Z,6.20
2018-09-05T22:17:34.331Z,6.17
2018-09-05T22:20:02.937Z,6.80
2018-09-05T22:22:34.334Z,6.23
2018-09-05T22:25:02.955Z,5.93
2018-09-05T22:27:31.708Z,6.37
2018-09-05T22:30:00.814Z,5.93
2018-09-05T22:32:29.440Z,6.43
2018-09-05T22:34:58.128Z,5.83
2018-09-05T22:37:27.752Z,5.43
2018-09-05T22:39:56.375Z,5.90
2018-09-05T22:42:24.975Z,5.90
2018-09-05T22:45:04.926Z,6.80
2018-09-05T22:47:44.684Z,6.03
2018-09-05T22:51:26.209Z,6.40
2018-09-05T22:54:11.428Z,6.20
2018-09-05T22:56:58.306Z,5.80
2018-09-05T23:02:12.898Z,6.63
2018-09-05T23:04:54.084Z,7.43
2018-09-05T23:07:29.596Z,6.70
2018-09-05T23:12:12.672Z,6.90
2018-09-05T23:14:56.535Z,6.70
2018-09-05T23:17:36.844Z,6.20
2018-09-05T23:21:19.676Z,6.73
2018-09-05T23:24:16.133Z,7.07
2018-09-05T23:26:45.027Z,6.70
2018-09-05T23:29:13.820Z,6.00
2018-09-05T23:31:43.012Z,6.60
2018-09-05T23:34:11.596Z,7.28
2018-09-05T23:36:41.202Z,8.10
2018-09-05T23:39:10.708Z,7.10
2018-09-05T23:41:39.624Z,6.73
2018-09-05T23:44:08.405Z,6.77
2018-09-05T23:46:37.790Z,7.30
2018-09-05T23:49:06.635Z,7.57
2018-09-05T23:51:35.491Z,6.60
2018-09-05T23:54:07.948Z,6.43
2018-09-05T23:56:37.747Z,6.30
2018-09-05T23:59:07.619Z,7.57
